<?xml version="1.0" encoding="UTF-8" standalone="no" ?>
<gpx xmlns="http://www.topografix.com/GPX/1/1" xmlns:xsi="http://www.w3.org/2001/XMLSchema-instance" xsi:schemaLocation="http://www.topografix.com/GPX/1/1 http://www.topografix.com/GPX/1/1/gpx.xsd" version="1.1" creator="VisuGPX - https://www.visugpx.com">
  <metadata>
    <name>2022 10 08 randonnée autour des Salins de Frontignan</name>
    <desc><![CDATA[2022 10 08 randonnée autour des Salins de Frontignan]]></desc>
  </metadata>
  <trk>
    <name><![CDATA[2022 10 08 randonnée autour des Salins de Frontignan]]></name>
    <trkseg>
      <trkpt lat="43.44542" lon="3.75923">
        <ele>48</ele>
        <time>2022-10-08T14:44:46+02:00</time>
      </trkpt>
      <trkpt lat="43.44543" lon="3.75956">
        <ele>50</ele>
        <time>2022-10-08T14:45:00+02:00</time>
      </trkpt>
      <trkpt lat="43.44542" lon="3.75987">
        <ele>41</ele>
        <time>2022-10-08T14:45:25+02:00</time>
      </trkpt>
      <trkpt lat="43.44537" lon="3.76018">
        <ele>41</ele>
        <time>2022-10-08T14:45:47+02:00</time>
      </trkpt>
      <trkpt lat="43.44523" lon="3.76043">
        <ele>40</ele>
        <time>2022-10-08T14:46:07+02:00</time>
      </trkpt>
      <trkpt lat="43.44525" lon="3.76104">
        <ele>39</ele>
        <time>2022-10-08T14:46:47+02:00</time>
      </trkpt>
      <trkpt lat="43.44524" lon="3.76137">
        <ele>38</ele>
        <time>2022-10-08T14:47:06+02:00</time>
      </trkpt>
      <trkpt lat="43.44521" lon="3.76168">
        <ele>39</ele>
        <time>2022-10-08T14:47:26+02:00</time>
      </trkpt>
      <trkpt lat="43.44519" lon="3.762">
        <ele>43</ele>
        <time>2022-10-08T14:47:44+02:00</time>
      </trkpt>
      <trkpt lat="43.44519" lon="3.76233">
        <ele>42</ele>
        <time>2022-10-08T14:48:04+02:00</time>
      </trkpt>
      <trkpt lat="43.44518" lon="3.76264">
        <ele>42</ele>
        <time>2022-10-08T14:48:23+02:00</time>
      </trkpt>
      <trkpt lat="43.44516" lon="3.76296">
        <ele>43</ele>
        <time>2022-10-08T14:48:43+02:00</time>
      </trkpt>
      <trkpt lat="43.44514" lon="3.76327">
        <ele>41</ele>
        <time>2022-10-08T14:49:04+02:00</time>
      </trkpt>
      <trkpt lat="43.44515" lon="3.76359">
        <ele>44</ele>
        <time>2022-10-08T14:49:22+02:00</time>
      </trkpt>
      <trkpt lat="43.44537" lon="3.76364">
        <ele>47</ele>
        <time>2022-10-08T14:49:47+02:00</time>
      </trkpt>
      <trkpt lat="43.4456" lon="3.76355">
        <ele>47</ele>
        <time>2022-10-08T14:50:08+02:00</time>
      </trkpt>
      <trkpt lat="43.44583" lon="3.76348">
        <ele>49</ele>
        <time>2022-10-08T14:50:27+02:00</time>
      </trkpt>
      <trkpt lat="43.44605" lon="3.76337">
        <ele>49</ele>
        <time>2022-10-08T14:50:45+02:00</time>
      </trkpt>
      <trkpt lat="43.44621" lon="3.7636">
        <ele>46</ele>
        <time>2022-10-08T14:51:08+02:00</time>
      </trkpt>
      <trkpt lat="43.44632" lon="3.76388">
        <ele>44</ele>
        <time>2022-10-08T14:51:28+02:00</time>
      </trkpt>
      <trkpt lat="43.44644" lon="3.76414">
        <ele>46</ele>
        <time>2022-10-08T14:51:48+02:00</time>
      </trkpt>
      <trkpt lat="43.44658" lon="3.7644">
        <ele>46</ele>
        <time>2022-10-08T14:52:11+02:00</time>
      </trkpt>
      <trkpt lat="43.44668" lon="3.76469">
        <ele>45</ele>
        <time>2022-10-08T14:52:30+02:00</time>
      </trkpt>
      <trkpt lat="43.44679" lon="3.76497">
        <ele>46</ele>
        <time>2022-10-08T14:52:50+02:00</time>
      </trkpt>
      <trkpt lat="43.4469" lon="3.76526">
        <ele>45</ele>
        <time>2022-10-08T14:53:09+02:00</time>
      </trkpt>
      <trkpt lat="43.44703" lon="3.76552">
        <ele>43</ele>
        <time>2022-10-08T14:53:30+02:00</time>
      </trkpt>
      <trkpt lat="43.44711" lon="3.76582">
        <ele>42</ele>
        <time>2022-10-08T14:53:49+02:00</time>
      </trkpt>
      <trkpt lat="43.44722" lon="3.76611">
        <ele>43</ele>
        <time>2022-10-08T14:54:08+02:00</time>
      </trkpt>
      <trkpt lat="43.44733" lon="3.76639">
        <ele>44</ele>
        <time>2022-10-08T14:54:28+02:00</time>
      </trkpt>
      <trkpt lat="43.44745" lon="3.76666">
        <ele>45</ele>
        <time>2022-10-08T14:54:48+02:00</time>
      </trkpt>
      <trkpt lat="43.44755" lon="3.76695">
        <ele>47</ele>
        <time>2022-10-08T14:55:06+02:00</time>
      </trkpt>
      <trkpt lat="43.44768" lon="3.76722">
        <ele>45</ele>
        <time>2022-10-08T14:55:25+02:00</time>
      </trkpt>
      <trkpt lat="43.44778" lon="3.76751">
        <ele>42</ele>
        <time>2022-10-08T14:55:43+02:00</time>
      </trkpt>
      <trkpt lat="43.44787" lon="3.7678">
        <ele>45</ele>
        <time>2022-10-08T14:56:05+02:00</time>
      </trkpt>
      <trkpt lat="43.44798" lon="3.76808">
        <ele>45</ele>
        <time>2022-10-08T14:56:23+02:00</time>
      </trkpt>
      <trkpt lat="43.44809" lon="3.76836">
        <ele>44</ele>
        <time>2022-10-08T14:56:45+02:00</time>
      </trkpt>
      <trkpt lat="43.44821" lon="3.76863">
        <ele>41</ele>
        <time>2022-10-08T14:57:04+02:00</time>
      </trkpt>
      <trkpt lat="43.44829" lon="3.76892">
        <ele>42</ele>
        <time>2022-10-08T14:57:23+02:00</time>
      </trkpt>
      <trkpt lat="43.44838" lon="3.76921">
        <ele>42</ele>
        <time>2022-10-08T14:57:41+02:00</time>
      </trkpt>
      <trkpt lat="43.44848" lon="3.7695">
        <ele>42</ele>
        <time>2022-10-08T14:58:02+02:00</time>
      </trkpt>
      <trkpt lat="43.4486" lon="3.76976">
        <ele>40</ele>
        <time>2022-10-08T14:58:23+02:00</time>
      </trkpt>
      <trkpt lat="43.44875" lon="3.77001">
        <ele>40</ele>
        <time>2022-10-08T14:58:39+02:00</time>
      </trkpt>
      <trkpt lat="43.44883" lon="3.77032">
        <ele>37</ele>
        <time>2022-10-08T14:59:06+02:00</time>
      </trkpt>
      <trkpt lat="43.44894" lon="3.77059">
        <ele>40</ele>
        <time>2022-10-08T14:59:23+02:00</time>
      </trkpt>
      <trkpt lat="43.44902" lon="3.77088">
        <ele>39</ele>
        <time>2022-10-08T14:59:41+02:00</time>
      </trkpt>
      <trkpt lat="43.44914" lon="3.77116">
        <ele>42</ele>
        <time>2022-10-08T15:00:00+02:00</time>
      </trkpt>
      <trkpt lat="43.44925" lon="3.77144">
        <ele>42</ele>
        <time>2022-10-08T15:00:18+02:00</time>
      </trkpt>
      <trkpt lat="43.44935" lon="3.77172">
        <ele>43</ele>
        <time>2022-10-08T15:00:39+02:00</time>
      </trkpt>
      <trkpt lat="43.44944" lon="3.77201">
        <ele>42</ele>
        <time>2022-10-08T15:00:59+02:00</time>
      </trkpt>
      <trkpt lat="43.44955" lon="3.77229">
        <ele>39</ele>
        <time>2022-10-08T15:01:18+02:00</time>
      </trkpt>
      <trkpt lat="43.4497" lon="3.77253">
        <ele>41</ele>
        <time>2022-10-08T15:01:32+02:00</time>
      </trkpt>
      <trkpt lat="43.44985" lon="3.77312">
        <ele>42</ele>
        <time>2022-10-08T15:02:14+02:00</time>
      </trkpt>
      <trkpt lat="43.44998" lon="3.77338">
        <ele>42</ele>
        <time>2022-10-08T15:02:36+02:00</time>
      </trkpt>
      <trkpt lat="43.45009" lon="3.77366">
        <ele>44</ele>
        <time>2022-10-08T15:02:54+02:00</time>
      </trkpt>
      <trkpt lat="43.45031" lon="3.7742">
        <ele>42</ele>
        <time>2022-10-08T15:03:32+02:00</time>
      </trkpt>
      <trkpt lat="43.45039" lon="3.77451">
        <ele>44</ele>
        <time>2022-10-08T15:03:53+02:00</time>
      </trkpt>
      <trkpt lat="43.45052" lon="3.77478">
        <ele>46</ele>
        <time>2022-10-08T15:04:12+02:00</time>
      </trkpt>
      <trkpt lat="43.4506" lon="3.77508">
        <ele>47</ele>
        <time>2022-10-08T15:04:31+02:00</time>
      </trkpt>
      <trkpt lat="43.4507" lon="3.77536">
        <ele>48</ele>
        <time>2022-10-08T15:04:51+02:00</time>
      </trkpt>
      <trkpt lat="43.45084" lon="3.77561">
        <ele>42</ele>
        <time>2022-10-08T15:05:11+02:00</time>
      </trkpt>
      <trkpt lat="43.45095" lon="3.77589">
        <ele>41</ele>
        <time>2022-10-08T15:05:31+02:00</time>
      </trkpt>
      <trkpt lat="43.45104" lon="3.77617">
        <ele>43</ele>
        <time>2022-10-08T15:05:50+02:00</time>
      </trkpt>
      <trkpt lat="43.45116" lon="3.77645">
        <ele>44</ele>
        <time>2022-10-08T15:06:10+02:00</time>
      </trkpt>
      <trkpt lat="43.45125" lon="3.77674">
        <ele>45</ele>
        <time>2022-10-08T15:06:29+02:00</time>
      </trkpt>
      <trkpt lat="43.45138" lon="3.77703">
        <ele>46</ele>
        <time>2022-10-08T15:06:47+02:00</time>
      </trkpt>
      <trkpt lat="43.4515" lon="3.7773">
        <ele>46</ele>
        <time>2022-10-08T15:07:09+02:00</time>
      </trkpt>
      <trkpt lat="43.45161" lon="3.77759">
        <ele>43</ele>
        <time>2022-10-08T15:07:29+02:00</time>
      </trkpt>
      <trkpt lat="43.45176" lon="3.77783">
        <ele>45</ele>
        <time>2022-10-08T15:07:49+02:00</time>
      </trkpt>
      <trkpt lat="43.45185" lon="3.77812">
        <ele>47</ele>
        <time>2022-10-08T15:08:08+02:00</time>
      </trkpt>
      <trkpt lat="43.45199" lon="3.77838">
        <ele>48</ele>
        <time>2022-10-08T15:08:27+02:00</time>
      </trkpt>
      <trkpt lat="43.45217" lon="3.77859">
        <ele>47</ele>
        <time>2022-10-08T15:08:53+02:00</time>
      </trkpt>
      <trkpt lat="43.45241" lon="3.77861">
        <ele>48</ele>
        <time>2022-10-08T15:09:09+02:00</time>
      </trkpt>
      <trkpt lat="43.45264" lon="3.77862">
        <ele>50</ele>
        <time>2022-10-08T15:09:27+02:00</time>
      </trkpt>
      <trkpt lat="43.45288" lon="3.77864">
        <ele>52</ele>
        <time>2022-10-08T15:09:48+02:00</time>
      </trkpt>
      <trkpt lat="43.45311" lon="3.77867">
        <ele>52</ele>
        <time>2022-10-08T15:10:08+02:00</time>
      </trkpt>
      <trkpt lat="43.45334" lon="3.77859">
        <ele>51</ele>
        <time>2022-10-08T15:10:30+02:00</time>
      </trkpt>
      <trkpt lat="43.45353" lon="3.77841">
        <ele>50</ele>
        <time>2022-10-08T15:10:49+02:00</time>
      </trkpt>
      <trkpt lat="43.45371" lon="3.77822">
        <ele>50</ele>
        <time>2022-10-08T15:11:09+02:00</time>
      </trkpt>
      <trkpt lat="43.45389" lon="3.77799">
        <ele>45</ele>
        <time>2022-10-08T15:11:30+02:00</time>
      </trkpt>
      <trkpt lat="43.45404" lon="3.77775">
        <ele>42</ele>
        <time>2022-10-08T15:11:50+02:00</time>
      </trkpt>
      <trkpt lat="43.45422" lon="3.77755">
        <ele>43</ele>
        <time>2022-10-08T15:12:07+02:00</time>
      </trkpt>
      <trkpt lat="43.45439" lon="3.77735">
        <ele>45</ele>
        <time>2022-10-08T15:12:29+02:00</time>
      </trkpt>
      <trkpt lat="43.45462" lon="3.77727">
        <ele>44</ele>
        <time>2022-10-08T15:12:48+02:00</time>
      </trkpt>
      <trkpt lat="43.45482" lon="3.77712">
        <ele>45</ele>
        <time>2022-10-08T15:13:41+02:00</time>
      </trkpt>
      <trkpt lat="43.45504" lon="3.77702">
        <ele>48</ele>
        <time>2022-10-08T15:14:03+02:00</time>
      </trkpt>
      <trkpt lat="43.45526" lon="3.77714">
        <ele>48</ele>
        <time>2022-10-08T15:14:21+02:00</time>
      </trkpt>
      <trkpt lat="43.45541" lon="3.77737">
        <ele>50</ele>
        <time>2022-10-08T15:14:40+02:00</time>
      </trkpt>
      <trkpt lat="43.45573" lon="3.77782">
        <ele>46</ele>
        <time>2022-10-08T15:15:20+02:00</time>
      </trkpt>
      <trkpt lat="43.45587" lon="3.77808">
        <ele>50</ele>
        <time>2022-10-08T15:15:41+02:00</time>
      </trkpt>
      <trkpt lat="43.45602" lon="3.77832">
        <ele>52</ele>
        <time>2022-10-08T15:16:00+02:00</time>
      </trkpt>
      <trkpt lat="43.45619" lon="3.77855">
        <ele>54</ele>
        <time>2022-10-08T15:16:23+02:00</time>
      </trkpt>
      <trkpt lat="43.45637" lon="3.77837">
        <ele>50</ele>
        <time>2022-10-08T15:16:57+02:00</time>
      </trkpt>
      <trkpt lat="43.45648" lon="3.77809">
        <ele>46</ele>
        <time>2022-10-08T15:17:17+02:00</time>
      </trkpt>
      <trkpt lat="43.45661" lon="3.77783">
        <ele>46</ele>
        <time>2022-10-08T15:17:37+02:00</time>
      </trkpt>
      <trkpt lat="43.45676" lon="3.77759">
        <ele>45</ele>
        <time>2022-10-08T15:17:58+02:00</time>
      </trkpt>
      <trkpt lat="43.45681" lon="3.77729">
        <ele>44</ele>
        <time>2022-10-08T15:18:18+02:00</time>
      </trkpt>
      <trkpt lat="43.45686" lon="3.77698">
        <ele>47</ele>
        <time>2022-10-08T15:18:39+02:00</time>
      </trkpt>
      <trkpt lat="43.45691" lon="3.77666">
        <ele>45</ele>
        <time>2022-10-08T15:18:58+02:00</time>
      </trkpt>
      <trkpt lat="43.45694" lon="3.77635">
        <ele>44</ele>
        <time>2022-10-08T15:19:17+02:00</time>
      </trkpt>
      <trkpt lat="43.45698" lon="3.77603">
        <ele>41</ele>
        <time>2022-10-08T15:19:40+02:00</time>
      </trkpt>
      <trkpt lat="43.45702" lon="3.77572">
        <ele>44</ele>
        <time>2022-10-08T15:19:56+02:00</time>
      </trkpt>
      <trkpt lat="43.45715" lon="3.77546">
        <ele>46</ele>
        <time>2022-10-08T15:20:15+02:00</time>
      </trkpt>
      <trkpt lat="43.45732" lon="3.77524">
        <ele>45</ele>
        <time>2022-10-08T15:20:37+02:00</time>
      </trkpt>
      <trkpt lat="43.45746" lon="3.77499">
        <ele>47</ele>
        <time>2022-10-08T15:20:57+02:00</time>
      </trkpt>
      <trkpt lat="43.45742" lon="3.77468">
        <ele>48</ele>
        <time>2022-10-08T15:21:23+02:00</time>
      </trkpt>
      <trkpt lat="43.45732" lon="3.7744">
        <ele>47</ele>
        <time>2022-10-08T15:21:42+02:00</time>
      </trkpt>
      <trkpt lat="43.45721" lon="3.77412">
        <ele>47</ele>
        <time>2022-10-08T15:22:01+02:00</time>
      </trkpt>
      <trkpt lat="43.45712" lon="3.77384">
        <ele>48</ele>
        <time>2022-10-08T15:22:20+02:00</time>
      </trkpt>
      <trkpt lat="43.45703" lon="3.77355">
        <ele>48</ele>
        <time>2022-10-08T15:22:38+02:00</time>
      </trkpt>
      <trkpt lat="43.45695" lon="3.77325">
        <ele>51</ele>
        <time>2022-10-08T15:22:59+02:00</time>
      </trkpt>
      <trkpt lat="43.45684" lon="3.77297">
        <ele>50</ele>
        <time>2022-10-08T15:23:17+02:00</time>
      </trkpt>
      <trkpt lat="43.45688" lon="3.77266">
        <ele>50</ele>
        <time>2022-10-08T15:23:44+02:00</time>
      </trkpt>
      <trkpt lat="43.45701" lon="3.77241">
        <ele>50</ele>
        <time>2022-10-08T15:24:03+02:00</time>
      </trkpt>
      <trkpt lat="43.45716" lon="3.77217">
        <ele>50</ele>
        <time>2022-10-08T15:24:23+02:00</time>
      </trkpt>
      <trkpt lat="43.45733" lon="3.77196">
        <ele>49</ele>
        <time>2022-10-08T15:24:41+02:00</time>
      </trkpt>
      <trkpt lat="43.45747" lon="3.77172">
        <ele>49</ele>
        <time>2022-10-08T15:25:00+02:00</time>
      </trkpt>
      <trkpt lat="43.45763" lon="3.7715">
        <ele>48</ele>
        <time>2022-10-08T15:25:19+02:00</time>
      </trkpt>
      <trkpt lat="43.45781" lon="3.77129">
        <ele>49</ele>
        <time>2022-10-08T15:25:39+02:00</time>
      </trkpt>
      <trkpt lat="43.45797" lon="3.77106">
        <ele>49</ele>
        <time>2022-10-08T15:26:00+02:00</time>
      </trkpt>
      <trkpt lat="43.45813" lon="3.77084">
        <ele>47</ele>
        <time>2022-10-08T15:26:19+02:00</time>
      </trkpt>
      <trkpt lat="43.45829" lon="3.77061">
        <ele>49</ele>
        <time>2022-10-08T15:26:37+02:00</time>
      </trkpt>
      <trkpt lat="43.45845" lon="3.77039">
        <ele>49</ele>
        <time>2022-10-08T15:26:57+02:00</time>
      </trkpt>
      <trkpt lat="43.4586" lon="3.77015">
        <ele>48</ele>
        <time>2022-10-08T15:27:17+02:00</time>
      </trkpt>
      <trkpt lat="43.45877" lon="3.76994">
        <ele>44</ele>
        <time>2022-10-08T15:27:37+02:00</time>
      </trkpt>
      <trkpt lat="43.45892" lon="3.76968">
        <ele>44</ele>
        <time>2022-10-08T15:27:57+02:00</time>
      </trkpt>
      <trkpt lat="43.4591" lon="3.76947">
        <ele>47</ele>
        <time>2022-10-08T15:28:18+02:00</time>
      </trkpt>
      <trkpt lat="43.45927" lon="3.76927">
        <ele>47</ele>
        <time>2022-10-08T15:28:36+02:00</time>
      </trkpt>
      <trkpt lat="43.45946" lon="3.76907">
        <ele>41</ele>
        <time>2022-10-08T15:28:59+02:00</time>
      </trkpt>
      <trkpt lat="43.45968" lon="3.769">
        <ele>42</ele>
        <time>2022-10-08T15:29:21+02:00</time>
      </trkpt>
      <trkpt lat="43.45991" lon="3.769">
        <ele>43</ele>
        <time>2022-10-08T15:29:41+02:00</time>
      </trkpt>
      <trkpt lat="43.46014" lon="3.76898">
        <ele>45</ele>
        <time>2022-10-08T15:29:59+02:00</time>
      </trkpt>
      <trkpt lat="43.46036" lon="3.76894">
        <ele>46</ele>
        <time>2022-10-08T15:30:17+02:00</time>
      </trkpt>
      <trkpt lat="43.4606" lon="3.7689">
        <ele>50</ele>
        <time>2022-10-08T15:30:38+02:00</time>
      </trkpt>
      <trkpt lat="43.46083" lon="3.76887">
        <ele>51</ele>
        <time>2022-10-08T15:30:55+02:00</time>
      </trkpt>
      <trkpt lat="43.46105" lon="3.76879">
        <ele>51</ele>
        <time>2022-10-08T15:31:19+02:00</time>
      </trkpt>
      <trkpt lat="43.46128" lon="3.76871">
        <ele>46</ele>
        <time>2022-10-08T15:31:41+02:00</time>
      </trkpt>
      <trkpt lat="43.46151" lon="3.76862">
        <ele>44</ele>
        <time>2022-10-08T15:32:01+02:00</time>
      </trkpt>
      <trkpt lat="43.46164" lon="3.76836">
        <ele>45</ele>
        <time>2022-10-08T15:32:29+02:00</time>
      </trkpt>
      <trkpt lat="43.46144" lon="3.76808">
        <ele>58</ele>
        <time>2022-10-08T15:32:43+02:00</time>
      </trkpt>
      <trkpt lat="43.46123" lon="3.76819">
        <ele>43</ele>
        <time>2022-10-08T15:33:10+02:00</time>
      </trkpt>
      <trkpt lat="43.46102" lon="3.76804">
        <ele>45</ele>
        <time>2022-10-08T15:33:32+02:00</time>
      </trkpt>
      <trkpt lat="43.46082" lon="3.76789">
        <ele>45</ele>
        <time>2022-10-08T15:33:51+02:00</time>
      </trkpt>
      <trkpt lat="43.46061" lon="3.76775">
        <ele>46</ele>
        <time>2022-10-08T15:34:08+02:00</time>
      </trkpt>
      <trkpt lat="43.46041" lon="3.76761">
        <ele>44</ele>
        <time>2022-10-08T15:34:30+02:00</time>
      </trkpt>
      <trkpt lat="43.46021" lon="3.76746">
        <ele>41</ele>
        <time>2022-10-08T15:34:51+02:00</time>
      </trkpt>
      <trkpt lat="43.46" lon="3.76733">
        <ele>39</ele>
        <time>2022-10-08T15:35:08+02:00</time>
      </trkpt>
      <trkpt lat="43.4598" lon="3.76716">
        <ele>41</ele>
        <time>2022-10-08T15:35:27+02:00</time>
      </trkpt>
      <trkpt lat="43.45959" lon="3.76705">
        <ele>41</ele>
        <time>2022-10-08T15:35:47+02:00</time>
      </trkpt>
      <trkpt lat="43.45939" lon="3.76689">
        <ele>43</ele>
        <time>2022-10-08T15:36:05+02:00</time>
      </trkpt>
      <trkpt lat="43.4592" lon="3.76672">
        <ele>45</ele>
        <time>2022-10-08T15:36:25+02:00</time>
      </trkpt>
      <trkpt lat="43.45899" lon="3.76659">
        <ele>41</ele>
        <time>2022-10-08T15:36:48+02:00</time>
      </trkpt>
      <trkpt lat="43.45879" lon="3.76644">
        <ele>40</ele>
        <time>2022-10-08T15:37:03+02:00</time>
      </trkpt>
      <trkpt lat="43.4585" lon="3.76609">
        <ele>50</ele>
        <time>2022-10-08T15:37:30+02:00</time>
      </trkpt>
      <trkpt lat="43.45828" lon="3.76601">
        <ele>44</ele>
        <time>2022-10-08T15:37:57+02:00</time>
      </trkpt>
      <trkpt lat="43.45807" lon="3.76588">
        <ele>41</ele>
        <time>2022-10-08T15:38:17+02:00</time>
      </trkpt>
      <trkpt lat="43.45786" lon="3.76574">
        <ele>43</ele>
        <time>2022-10-08T15:38:38+02:00</time>
      </trkpt>
      <trkpt lat="43.45766" lon="3.76556">
        <ele>47</ele>
        <time>2022-10-08T15:38:53+02:00</time>
      </trkpt>
      <trkpt lat="43.45746" lon="3.76542">
        <ele>43</ele>
        <time>2022-10-08T15:39:15+02:00</time>
      </trkpt>
      <trkpt lat="43.45725" lon="3.7653">
        <ele>41</ele>
        <time>2022-10-08T15:39:37+02:00</time>
      </trkpt>
      <trkpt lat="43.45702" lon="3.76525">
        <ele>43</ele>
        <time>2022-10-08T15:39:55+02:00</time>
      </trkpt>
      <trkpt lat="43.4568" lon="3.76532">
        <ele>43</ele>
        <time>2022-10-08T15:40:17+02:00</time>
      </trkpt>
      <trkpt lat="43.45656" lon="3.76529">
        <ele>43</ele>
        <time>2022-10-08T15:40:36+02:00</time>
      </trkpt>
      <trkpt lat="43.45633" lon="3.76532">
        <ele>43</ele>
        <time>2022-10-08T15:40:55+02:00</time>
      </trkpt>
      <trkpt lat="43.45611" lon="3.76527">
        <ele>43</ele>
        <time>2022-10-08T15:41:15+02:00</time>
      </trkpt>
      <trkpt lat="43.45589" lon="3.76518">
        <ele>43</ele>
        <time>2022-10-08T15:41:35+02:00</time>
      </trkpt>
      <trkpt lat="43.45565" lon="3.76514">
        <ele>40</ele>
        <time>2022-10-08T15:41:53+02:00</time>
      </trkpt>
      <trkpt lat="43.45542" lon="3.76508">
        <ele>43</ele>
        <time>2022-10-08T15:42:14+02:00</time>
      </trkpt>
      <trkpt lat="43.45519" lon="3.76501">
        <ele>43</ele>
        <time>2022-10-08T15:42:36+02:00</time>
      </trkpt>
      <trkpt lat="43.45497" lon="3.76493">
        <ele>43</ele>
        <time>2022-10-08T15:42:54+02:00</time>
      </trkpt>
      <trkpt lat="43.45474" lon="3.7649">
        <ele>39</ele>
        <time>2022-10-08T15:43:15+02:00</time>
      </trkpt>
      <trkpt lat="43.45451" lon="3.76489">
        <ele>41</ele>
        <time>2022-10-08T15:43:36+02:00</time>
      </trkpt>
      <trkpt lat="43.45428" lon="3.7649">
        <ele>40</ele>
        <time>2022-10-08T15:43:55+02:00</time>
      </trkpt>
      <trkpt lat="43.45404" lon="3.76492">
        <ele>37</ele>
        <time>2022-10-08T15:44:16+02:00</time>
      </trkpt>
      <trkpt lat="43.45381" lon="3.76486">
        <ele>35</ele>
        <time>2022-10-08T15:44:38+02:00</time>
      </trkpt>
      <trkpt lat="43.45357" lon="3.76481">
        <ele>35</ele>
        <time>2022-10-08T15:44:56+02:00</time>
      </trkpt>
      <trkpt lat="43.45335" lon="3.76473">
        <ele>36</ele>
        <time>2022-10-08T15:45:16+02:00</time>
      </trkpt>
      <trkpt lat="43.45313" lon="3.76463">
        <ele>37</ele>
        <time>2022-10-08T15:45:34+02:00</time>
      </trkpt>
      <trkpt lat="43.45291" lon="3.76451">
        <ele>37</ele>
        <time>2022-10-08T15:45:53+02:00</time>
      </trkpt>
      <trkpt lat="43.45271" lon="3.76435">
        <ele>39</ele>
        <time>2022-10-08T15:46:15+02:00</time>
      </trkpt>
      <trkpt lat="43.4525" lon="3.76418">
        <ele>39</ele>
        <time>2022-10-08T15:46:35+02:00</time>
      </trkpt>
      <trkpt lat="43.4523" lon="3.76402">
        <ele>40</ele>
        <time>2022-10-08T15:46:51+02:00</time>
      </trkpt>
      <trkpt lat="43.45212" lon="3.76382">
        <ele>41</ele>
        <time>2022-10-08T15:47:13+02:00</time>
      </trkpt>
      <trkpt lat="43.45196" lon="3.76355">
        <ele>52</ele>
        <time>2022-10-08T15:47:32+02:00</time>
      </trkpt>
      <trkpt lat="43.45176" lon="3.76338">
        <ele>47</ele>
        <time>2022-10-08T15:47:48+02:00</time>
      </trkpt>
      <trkpt lat="43.45157" lon="3.76319">
        <ele>44</ele>
        <time>2022-10-08T15:48:10+02:00</time>
      </trkpt>
      <trkpt lat="43.4514" lon="3.76297">
        <ele>45</ele>
        <time>2022-10-08T15:48:31+02:00</time>
      </trkpt>
      <trkpt lat="43.45122" lon="3.76276">
        <ele>43</ele>
        <time>2022-10-08T15:48:53+02:00</time>
      </trkpt>
      <trkpt lat="43.45105" lon="3.76254">
        <ele>42</ele>
        <time>2022-10-08T15:49:13+02:00</time>
      </trkpt>
      <trkpt lat="43.45087" lon="3.76235">
        <ele>41</ele>
        <time>2022-10-08T15:49:31+02:00</time>
      </trkpt>
      <trkpt lat="43.45069" lon="3.76216">
        <ele>42</ele>
        <time>2022-10-08T15:49:51+02:00</time>
      </trkpt>
      <trkpt lat="43.4505" lon="3.76197">
        <ele>41</ele>
        <time>2022-10-08T15:50:11+02:00</time>
      </trkpt>
      <trkpt lat="43.45033" lon="3.76175">
        <ele>40</ele>
        <time>2022-10-08T15:50:31+02:00</time>
      </trkpt>
      <trkpt lat="43.45016" lon="3.76152">
        <ele>41</ele>
        <time>2022-10-08T15:50:48+02:00</time>
      </trkpt>
      <trkpt lat="43.45008" lon="3.76122">
        <ele>48</ele>
        <time>2022-10-08T15:51:06+02:00</time>
      </trkpt>
      <trkpt lat="43.45012" lon="3.76091">
        <ele>35</ele>
        <time>2022-10-08T15:51:41+02:00</time>
      </trkpt>
      <trkpt lat="43.44998" lon="3.76066">
        <ele>38</ele>
        <time>2022-10-08T15:52:01+02:00</time>
      </trkpt>
      <trkpt lat="43.44978" lon="3.76052">
        <ele>38</ele>
        <time>2022-10-08T15:52:19+02:00</time>
      </trkpt>
      <trkpt lat="43.44956" lon="3.76042">
        <ele>36</ele>
        <time>2022-10-08T15:52:39+02:00</time>
      </trkpt>
      <trkpt lat="43.44933" lon="3.7604">
        <ele>28</ele>
        <time>2022-10-08T15:53:05+02:00</time>
      </trkpt>
      <trkpt lat="43.44911" lon="3.76032">
        <ele>31</ele>
        <time>2022-10-08T15:53:22+02:00</time>
      </trkpt>
      <trkpt lat="43.44889" lon="3.76021">
        <ele>32</ele>
        <time>2022-10-08T15:53:40+02:00</time>
      </trkpt>
      <trkpt lat="43.44867" lon="3.76016">
        <ele>27</ele>
        <time>2022-10-08T15:54:00+02:00</time>
      </trkpt>
      <trkpt lat="43.44844" lon="3.76008">
        <ele>32</ele>
        <time>2022-10-08T15:54:18+02:00</time>
      </trkpt>
      <trkpt lat="43.44822" lon="3.76001">
        <ele>36</ele>
        <time>2022-10-08T15:54:35+02:00</time>
      </trkpt>
      <trkpt lat="43.44798" lon="3.75996">
        <ele>31</ele>
        <time>2022-10-08T15:55:01+02:00</time>
      </trkpt>
      <trkpt lat="43.44775" lon="3.7599">
        <ele>30</ele>
        <time>2022-10-08T15:55:21+02:00</time>
      </trkpt>
      <trkpt lat="43.44753" lon="3.75981">
        <ele>31</ele>
        <time>2022-10-08T15:55:38+02:00</time>
      </trkpt>
      <trkpt lat="43.44731" lon="3.75972">
        <ele>35</ele>
        <time>2022-10-08T15:55:55+02:00</time>
      </trkpt>
      <trkpt lat="43.44708" lon="3.75968">
        <ele>32</ele>
        <time>2022-10-08T15:56:20+02:00</time>
      </trkpt>
      <trkpt lat="43.44686" lon="3.75961">
        <ele>36</ele>
        <time>2022-10-08T15:56:38+02:00</time>
      </trkpt>
      <trkpt lat="43.44663" lon="3.75958">
        <ele>34</ele>
        <time>2022-10-08T15:57:00+02:00</time>
      </trkpt>
      <trkpt lat="43.4464" lon="3.75951">
        <ele>38</ele>
        <time>2022-10-08T15:57:14+02:00</time>
      </trkpt>
      <trkpt lat="43.44616" lon="3.75948">
        <ele>41</ele>
        <time>2022-10-08T15:57:35+02:00</time>
      </trkpt>
      <trkpt lat="43.44594" lon="3.75941">
        <ele>46</ele>
        <time>2022-10-08T15:57:51+02:00</time>
      </trkpt>
      <trkpt lat="43.44571" lon="3.75939">
        <ele>47</ele>
        <time>2022-10-08T15:58:09+02:00</time>
      </trkpt>
      <trkpt lat="43.44548" lon="3.75937">
        <ele>46</ele>
        <time>2022-10-08T15:58:27+02:00</time>
      </trkpt>
    </trkseg>
  </trk>
</gpx>